createdAt,value
2023-03-31T00:04:54.840Z,10.34
2023-03-31T00:10:10.305Z,10.39
2023-03-31T00:15:18.165Z,10.47
2023-03-31T00:20:19.312Z,10.51
2023-03-31T00:25:20.537Z,10.51
2023-03-31T00:30:21.743Z,10.46
2023-03-31T00:35:22.937Z,10.43
2023-03-31T00:40:24.116Z,10.36
2023-03-31T00:45:27.107Z,10.29
2023-03-31T00:50:31.332Z,10.26
2023-03-31T00:55:32.563Z,10.22
2023-03-31T01:00:33.764Z,10.21
2023-03-31T01:05:35.038Z,10.18
2023-03-31T01:10:41.415Z,10.17
2023-03-31T01:15:42.649Z,10.16
2023-03-31T01:20:43.865Z,10.14
2023-03-31T01:25:45.078Z,10.13
2023-03-31T01:30:46.231Z,10.02
2023-03-31T01:35:47.466Z,9.98
2023-03-31T01:40:48.693Z,9.95
2023-03-31T01:45:49.941Z,9.90
2023-03-31T01:50:51.984Z,9.87
2023-03-31T01:55:53.244Z,9.87
2023-03-31T02:00:56.840Z,9.89
2023-03-31T02:05:58.091Z,9.93
2023-03-31T02:10:59.299Z,9.93
2023-03-31T02:16:01.497Z,9.93
2023-03-31T02:21:03.303Z,9.91
2023-03-31T02:26:04.730Z,9.88
2023-03-31T02:31:06.473Z,9.87
2023-03-31T02:36:08.599Z,9.84
2023-03-31T02:41:10.173Z,9.81
2023-03-31T02:46:11.941Z,9.77
2023-03-31T02:51:13.186Z,9.73
2023-03-31T02:56:14.394Z,9.71
2023-03-31T03:01:15.693Z,9.68
2023-03-31T03:06:16.855Z,9.67
2023-03-31T03:11:18.383Z,9.63
2023-03-31T03:16:19.661Z,9.60
2023-03-31T03:21:20.889Z,9.58
2023-03-31T03:26:23.879Z,9.59
2023-03-31T03:31:26.176Z,9.60
2023-03-31T03:36:27.659Z,9.61
2023-03-31T03:41:28.844Z,9.63
2023-03-31T03:46:30.073Z,9.64
2023-03-31T03:51:31.358Z,9.63
2023-03-31T03:56:32.570Z,9.64
2023-03-31T04:01:33.783Z,9.64
2023-03-31T04:06:35.125Z,9.64
2023-03-31T04:11:36.319Z,9.66
2023-03-31T04:16:38.499Z,9.66
2023-03-31T04:21:45.172Z,9.66
2023-03-31T04:26:46.390Z,9.67
2023-03-31T04:31:47.726Z,9.65
2023-03-31T04:36:48.929Z,9.63
2023-03-31T04:41:50.323Z,9.60
2023-03-31T04:46:51.478Z,9.54
2023-03-31T04:51:52.613Z,9.50
2023-03-31T04:56:53.825Z,9.44
2023-03-31T05:01:55.025Z,9.38
2023-03-31T05:06:56.519Z,9.29
2023-03-31T05:11:57.913Z,9.24
2023-03-31T05:16:59.308Z,9.21
2023-03-31T05:22:00.781Z,9.21
2023-03-31T05:27:01.953Z,9.23
2023-03-31T05:32:03.226Z,9.25
2023-03-31T05:37:04.530Z,9.26
2023-03-31T05:42:05.972Z,9.28
2023-03-31T05:47:07.200Z,9.33
2023-03-31T05:52:08.408Z,9.31
2023-03-31T05:57:10.038Z,9.31
2023-03-31T06:02:11.359Z,9.32
2023-03-31T06:07:13.365Z,9.33
2023-03-31T06:12:15.910Z,9.34
2023-03-31T06:17:17.144Z,9.34
2023-03-31T06:22:18.286Z,9.34
2023-03-31T06:27:19.541Z,9.33
2023-03-31T06:32:21.517Z,9.35
2023-03-31T06:37:22.698Z,9.35
2023-03-31T06:42:23.927Z,9.35
2023-03-31T06:47:25.161Z,9.35
2023-03-31T06:52:26.438Z,9.31
2023-03-31T06:57:27.643Z,9.26
2023-03-31T07:02:29.165Z,9.28
2023-03-31T07:07:30.503Z,9.38
2023-03-31T07:12:31.654Z,9.46
2023-03-31T07:17:32.903Z,9.58
2023-03-31T07:22:34.081Z,9.69
2023-03-31T07:27:35.317Z,9.69
2023-03-31T07:32:40.157Z,9.77
2023-03-31T07:37:41.896Z,9.94
2023-03-31T07:42:43.262Z,10.12
2023-03-31T07:47:46.273Z,10.20
2023-03-31T07:52:47.609Z,10.44
2023-03-31T07:57:48.843Z,10.82
2023-03-31T08:02:50.153Z,11.07
2023-03-31T08:07:51.805Z,11.22
2023-03-31T08:12:52.998Z,11.39
2023-03-31T08:17:54.184Z,11.22
2023-03-31T08:22:55.449Z,11.16
2023-03-31T08:27:56.946Z,11.04
2023-03-31T08:32:58.198Z,10.95
2023-03-31T08:37:59.441Z,11.08
2023-03-31T08:43:00.713Z,11.30
2023-03-31T08:48:01.939Z,11.77
2023-03-31T08:53:03.808Z,11.91
2023-03-31T08:58:05.174Z,11.90
2023-03-31T09:03:07.986Z,12.22
2023-03-31T09:08:09.413Z,12.70
2023-03-31T09:13:10.844Z,13.09
2023-03-31T09:18:12.074Z,13.57
2023-03-31T09:23:13.301Z,14.17
2023-03-31T09:28:14.654Z,13.91
2023-03-31T09:33:16.044Z,13.70
2023-03-31T09:38:17.315Z,13.98
2023-03-31T09:43:18.520Z,13.91
2023-03-31T09:48:19.710Z,13.67
2023-03-31T09:53:20.875Z,13.56
2023-03-31T09:58:24.706Z,13.88
2023-03-31T10:03:29.288Z,14.16
2023-03-31T10:08:30.707Z,15.20
2023-03-31T10:13:31.963Z,16.58
2023-03-31T10:18:33.198Z,16.27
2023-03-31T10:23:34.412Z,16.43
2023-03-31T10:28:35.613Z,15.48
2023-03-31T10:33:36.942Z,14.96
2023-03-31T10:38:40.078Z,15.10
2023-03-31T10:43:41.404Z,15.39
2023-03-31T10:48:43.809Z,16.11
2023-03-31T10:53:45.069Z,16.06
2023-03-31T10:58:54.968Z,15.81
2023-03-31T11:03:59.622Z,15.00
2023-03-31T11:09:00.834Z,14.30
2023-03-31T11:14:02.027Z,14.25
2023-03-31T11:19:03.497Z,14.14
2023-03-31T11:24:04.641Z,13.38
2023-03-31T11:29:05.825Z,11.80
2023-03-31T11:34:07.090Z,11.31
2023-03-31T11:39:08.301Z,11.52
2023-03-31T11:44:09.484Z,11.93
2023-03-31T11:49:10.681Z,12.31
2023-03-31T11:54:12.445Z,12.50
2023-03-31T11:59:14.285Z,12.60
2023-03-31T12:04:15.676Z,12.76
2023-03-31T12:09:16.946Z,13.02
2023-03-31T12:14:18.106Z,13.34
2023-03-31T12:19:19.304Z,13.31
2023-03-31T12:24:20.546Z,13.47
2023-03-31T12:29:21.693Z,13.71
2023-03-31T12:34:23.192Z,13.32
2023-03-31T12:39:24.523Z,13.02
2023-03-31T12:44:25.900Z,12.87
2023-03-31T12:49:27.256Z,12.79
2023-03-31T12:54:28.409Z,12.86
2023-03-31T12:59:29.589Z,13.00
2023-03-31T13:04:30.789Z,13.12
2023-03-31T13:09:32.080Z,13.20
2023-03-31T13:14:33.297Z,13.33
2023-03-31T13:19:34.508Z,13.48
2023-03-31T13:24:35.868Z,13.64
2023-03-31T13:29:37.076Z,13.53
2023-03-31T13:34:38.236Z,13.61
2023-03-31T13:39:39.361Z,13.71
2023-03-31T13:44:40.580Z,13.74
2023-03-31T13:49:42.254Z,13.86
2023-03-31T13:54:43.489Z,13.94
2023-03-31T13:59:44.665Z,14.04
2023-03-31T14:04:46.049Z,14.02
2023-03-31T14:09:49.915Z,14.18
2023-03-31T14:14:51.223Z,14.20
2023-03-31T14:19:52.364Z,14.33
2023-03-31T14:24:53.544Z,14.52
2023-03-31T14:29:54.791Z,14.43
2023-03-31T14:34:57.143Z,14.27
2023-03-31T14:39:58.868Z,14.08
2023-03-31T14:45:00.128Z,13.94
2023-03-31T14:50:02.024Z,13.92
2023-03-31T14:55:03.246Z,13.84
2023-03-31T15:00:06.558Z,13.79
2023-03-31T15:05:07.854Z,13.77
2023-03-31T15:10:09.179Z,13.69
2023-03-31T15:15:10.309Z,13.61
2023-03-31T15:20:12.294Z,13.52
2023-03-31T15:25:13.477Z,13.47
2023-03-31T15:30:14.666Z,13.52
2023-03-31T15:40:22.087Z,13.25
2023-03-31T15:45:23.274Z,12.49
2023-03-31T15:50:24.442Z,12.02
2023-03-31T15:55:26.183Z,11.71
2023-03-31T16:00:27.332Z,11.60
2023-03-31T16:05:29.382Z,11.65
2023-03-31T16:10:33.357Z,11.71
2023-03-31T16:15:34.593Z,11.76
2023-03-31T16:20:37.298Z,11.80
2023-03-31T16:25:38.524Z,11.83
2023-03-31T16:30:39.705Z,11.80
2023-03-31T16:35:41.649Z,11.73
2023-03-31T16:40:42.813Z,11.63
2023-03-31T16:45:43.992Z,11.59
2023-03-31T16:50:45.406Z,11.56
2023-03-31T16:55:47.181Z,11.55
2023-03-31T17:00:48.536Z,11.50
2023-03-31T17:05:52.529Z,11.49
2023-03-31T17:10:53.972Z,11.48
2023-03-31T17:16:01.436Z,11.46
2023-03-31T17:21:14.436Z,11.41
2023-03-31T17:26:15.960Z,11.39
2023-03-31T17:31:17.182Z,11.45
2023-03-31T17:36:18.551Z,11.57
2023-03-31T17:41:19.871Z,11.58
2023-03-31T17:46:21.207Z,11.59
2023-03-31T17:51:23.087Z,11.64
2023-03-31T17:56:24.779Z,11.66
2023-03-31T18:01:27.434Z,11.58
2023-03-31T18:06:28.682Z,11.49
2023-03-31T18:11:31.072Z,11.46
2023-03-31T18:16:32.470Z,11.44
2023-03-31T18:21:34.950Z,11.40
2023-03-31T18:26:36.544Z,11.41
2023-03-31T18:31:38.093Z,11.40
2023-03-31T18:36:40.198Z,11.39
2023-03-31T18:41:41.534Z,11.40
2023-03-31T18:46:42.780Z,11.34
2023-03-31T18:51:44.057Z,11.30
2023-03-31T18:56:45.830Z,11.20
2023-03-31T19:01:46.994Z,11.09
2023-03-31T19:06:48.206Z,10.97
2023-03-31T19:11:49.650Z,10.94
2023-03-31T19:16:50.968Z,10.96
2023-03-31T19:21:52.731Z,10.94
2023-03-31T19:26:54.033Z,10.86
2023-03-31T19:31:56.114Z,10.83
2023-03-31T19:36:57.728Z,10.78
2023-03-31T19:41:58.900Z,10.72
2023-03-31T19:47:00.232Z,10.73
2023-03-31T19:52:01.417Z,10.72
2023-03-31T19:57:02.761Z,10.66
2023-03-31T20:02:05.385Z,10.60
2023-03-31T20:07:06.727Z,10.58
2023-03-31T20:12:08.028Z,10.57
2023-03-31T20:17:10.048Z,10.64
2023-03-31T20:22:11.178Z,10.65
2023-03-31T20:27:12.363Z,10.63
2023-03-31T20:32:17.051Z,10.60
2023-03-31T20:37:18.427Z,10.61
2023-03-31T20:42:20.589Z,10.58
2023-03-31T20:47:21.756Z,10.57
2023-03-31T20:52:23.840Z,10.56
2023-03-31T20:57:26.143Z,10.54
2023-03-31T21:02:27.505Z,10.48
2023-03-31T21:07:28.773Z,10.43
2023-03-31T21:12:30.077Z,10.42
2023-03-31T21:17:31.243Z,10.38
2023-03-31T21:22:32.431Z,10.35
2023-03-31T21:27:33.609Z,10.35
2023-03-31T21:32:34.865Z,10.44
2023-03-31T21:37:38.944Z,10.51
2023-03-31T21:42:40.098Z,10.53
2023-03-31T21:47:41.448Z,10.52
2023-03-31T21:52:42.697Z,10.53
2023-03-31T21:57:43.930Z,10.55
2023-03-31T22:02:45.100Z,10.55
2023-03-31T22:07:46.560Z,10.53
2023-03-31T22:12:47.758Z,10.54
2023-03-31T22:17:48.984Z,10.53
2023-03-31T22:22:50.293Z,10.54
2023-03-31T22:27:51.408Z,10.51
2023-03-31T22:32:52.623Z,10.44
2023-03-31T22:37:53.822Z,10.35
2023-03-31T22:42:57.386Z,10.27
2023-03-31T22:47:58.671Z,10.24
2023-03-31T22:52:59.840Z,10.15
2023-03-31T22:58:01.088Z,10.07
2023-03-31T23:03:02.408Z,9.98
2023-03-31T23:08:03.605Z,9.86
2023-03-31T23:13:07.014Z,9.78
2023-03-31T23:18:08.275Z,9.72
2023-03-31T23:23:09.563Z,9.67
2023-03-31T23:28:10.794Z,9.63
2023-03-31T23:33:12.029Z,9.62
2023-03-31T23:38:13.210Z,9.60
2023-03-31T23:43:14.467Z,9.64
2023-03-31T23:48:15.601Z,9.63
2023-03-31T23:53:16.926Z,9.60
2023-03-31T23:58:18.117Z,9.53
